createdAt,value
2023-05-17T00:00:06.293Z,12.15
2023-05-17T00:01:06.376Z,12.10
2023-05-17T00:02:06.268Z,12.04
2023-05-17T00:03:06.281Z,12.03
2023-05-17T00:04:06.274Z,11.82
2023-05-17T00:05:06.245Z,11.76
2023-05-17T00:06:06.267Z,11.76
2023-05-17T00:07:06.237Z,11.74
2023-05-17T00:08:06.231Z,11.73
2023-05-17T00:09:06.228Z,11.76
2023-05-17T00:10:06.214Z,11.77
2023-05-17T00:11:06.209Z,11.77
2023-05-17T00:12:06.206Z,11.80
2023-05-17T00:13:06.196Z,11.85
2023-05-17T00:14:06.193Z,11.77
2023-05-17T00:15:06.177Z,11.85
2023-05-17T00:16:06.180Z,11.76
2023-05-17T00:17:06.188Z,11.74
2023-05-17T00:18:06.284Z,11.77
2023-05-17T00:19:06.272Z,11.76
2023-05-17T00:20:06.150Z,11.77
2023-05-17T00:21:06.133Z,11.62
2023-05-17T00:22:06.135Z,11.52
2023-05-17T00:23:06.144Z,11.49
2023-05-17T00:24:06.122Z,11.58
2023-05-17T00:25:06.138Z,11.49
2023-05-17T00:26:06.117Z,11.45
2023-05-17T00:27:06.105Z,11.45
2023-05-17T00:28:06.146Z,11.38
2023-05-17T00:29:06.104Z,11.52
2023-05-17T00:30:06.092Z,11.46
2023-05-17T00:31:06.085Z,11.55
2023-05-17T00:32:06.073Z,11.45
2023-05-17T00:33:06.158Z,11.49
2023-05-17T00:34:06.057Z,11.52
2023-05-17T00:35:06.106Z,11.55
2023-05-17T00:36:06.045Z,11.45
2023-05-17T00:37:06.036Z,11.52
2023-05-17T00:38:06.051Z,11.46
2023-05-17T00:39:06.011Z,11.55
2023-05-17T00:40:06.010Z,11.52
2023-05-17T00:41:06.001Z,11.49
2023-05-17T00:42:06.003Z,11.41
2023-05-17T00:43:05.996Z,11.38
2023-05-17T00:44:06.050Z,11.43
2023-05-17T00:45:05.978Z,11.31
2023-05-17T00:46:05.982Z,11.45
2023-05-17T00:47:06.016Z,11.37
2023-05-17T00:48:06.042Z,11.40
2023-05-17T00:49:05.952Z,11.25
2023-05-17T00:50:05.940Z,11.30
2023-05-17T00:51:05.926Z,11.27
2023-05-17T00:52:05.919Z,11.28
2023-05-17T00:53:05.928Z,11.48
2023-05-17T00:54:05.919Z,11.38
2023-05-17T00:55:05.918Z,11.46
2023-05-17T00:56:05.903Z,11.46
2023-05-17T00:57:05.929Z,11.48
2023-05-17T00:58:05.889Z,11.51
2023-05-17T00:59:05.870Z,11.46
2023-05-17T01:00:05.942Z,11.45
2023-05-17T01:01:05.863Z,11.38
2023-05-17T01:02:05.862Z,11.25
2023-05-17T01:03:05.984Z,11.27
2023-05-17T01:04:05.955Z,11.19
2023-05-17T01:05:05.929Z,11.27
2023-05-17T01:06:05.830Z,11.16
2023-05-17T01:07:05.820Z,11.13
2023-05-17T01:08:05.806Z,11.20
2023-05-17T01:09:05.813Z,11.18
2023-05-17T01:10:05.799Z,11.12
2023-05-17T01:11:05.795Z,11.18
2023-05-17T01:12:05.780Z,11.11
2023-05-17T01:13:05.781Z,11.23
2023-05-17T01:14:05.784Z,11.18
2023-05-17T01:15:05.769Z,11.22
2023-05-17T01:16:05.819Z,11.18
2023-05-17T01:17:05.763Z,11.23
2023-05-17T01:18:05.816Z,11.11
2023-05-17T01:19:05.796Z,11.15
2023-05-17T01:20:05.798Z,11.05
2023-05-17T01:21:05.721Z,11.03
2023-05-17T01:22:05.718Z,11.03
2023-05-17T01:23:05.709Z,10.90
2023-05-17T01:24:05.699Z,10.67
2023-05-17T01:25:05.700Z,10.62
2023-05-17T01:26:05.698Z,10.39
2023-05-17T01:27:05.704Z,10.31
2023-05-17T01:28:05.683Z,10.30
2023-05-17T01:29:05.689Z,10.41
2023-05-17T01:30:05.666Z,10.34
2023-05-17T01:31:05.662Z,10.43
2023-05-17T01:32:05.720Z,10.42
2023-05-17T01:33:05.727Z,10.62
2023-05-17T01:34:05.632Z,10.68
2023-05-17T01:35:05.632Z,10.72
2023-05-17T01:36:05.616Z,10.67
2023-05-17T01:37:05.615Z,10.58
2023-05-17T01:38:05.611Z,10.64
2023-05-17T01:39:05.595Z,10.65
2023-05-17T01:40:05.609Z,10.78
2023-05-17T01:41:05.573Z,10.78
2023-05-17T01:42:05.572Z,10.73
2023-05-17T01:43:05.558Z,10.83
2023-05-17T01:44:05.566Z,10.91
2023-05-17T01:45:05.564Z,10.90
2023-05-17T01:46:05.552Z,10.87
2023-05-17T01:47:05.533Z,10.87
2023-05-17T01:48:05.665Z,10.91
2023-05-17T01:49:05.517Z,10.97
2023-05-17T01:50:05.511Z,10.93
2023-05-17T01:51:05.515Z,11.03
2023-05-17T01:52:05.504Z,11.00
2023-05-17T01:53:05.502Z,11.03
2023-05-17T01:54:05.496Z,11.04
2023-05-17T01:55:05.495Z,10.90
2023-05-17T01:56:05.478Z,10.87
2023-05-17T01:57:05.478Z,10.90
2023-05-17T01:58:05.460Z,10.87
2023-05-17T01:59:05.471Z,10.76
2023-05-17T02:00:05.446Z,10.79
2023-05-17T02:01:05.436Z,10.68
2023-05-17T02:02:05.421Z,10.73
2023-05-17T02:03:05.478Z,10.80
2023-05-17T02:04:05.534Z,10.72
2023-05-17T02:05:05.471Z,10.68
2023-05-17T02:06:05.404Z,10.67
2023-05-17T02:07:05.413Z,10.76
2023-05-17T02:08:05.395Z,10.79
2023-05-17T02:09:05.383Z,10.80
2023-05-17T02:10:05.388Z,10.79
2023-05-17T02:11:05.366Z,10.86
2023-05-17T02:12:05.349Z,10.78
2023-05-17T02:13:05.352Z,10.73
2023-05-17T02:14:05.339Z,10.80
2023-05-17T02:15:05.335Z,10.85
2023-05-17T02:16:05.339Z,10.91
2023-05-17T02:17:05.320Z,10.91
2023-05-17T02:18:05.355Z,10.91
2023-05-17T02:19:05.347Z,10.79
2023-05-17T02:20:05.453Z,10.72
2023-05-17T02:21:05.300Z,10.79
2023-05-17T02:22:05.282Z,10.65
2023-05-17T02:23:05.281Z,10.79
2023-05-17T02:24:05.274Z,10.76
2023-05-17T02:25:05.282Z,10.83
2023-05-17T02:26:05.253Z,10.76
2023-05-17T02:27:05.248Z,10.75
2023-05-17T02:28:05.244Z,10.68
2023-05-17T02:29:05.234Z,10.62
2023-05-17T02:30:05.224Z,10.58
2023-05-17T02:31:05.235Z,10.68
2023-05-17T02:32:05.227Z,10.64
2023-05-17T02:33:05.377Z,10.60
2023-05-17T02:34:05.227Z,10.60
2023-05-17T02:35:05.199Z,10.60
2023-05-17T02:36:05.262Z,10.73
2023-05-17T02:37:05.192Z,10.70
2023-05-17T02:38:05.183Z,10.68
2023-05-17T02:39:05.163Z,10.79
2023-05-17T02:40:05.153Z,10.73
2023-05-17T02:41:05.165Z,10.72
2023-05-17T02:42:05.148Z,10.79
2023-05-17T02:43:05.154Z,10.76
2023-05-17T02:44:05.123Z,10.75
2023-05-17T02:45:05.119Z,10.72
2023-05-17T02:46:05.109Z,10.62
2023-05-17T02:47:05.155Z,10.72
2023-05-17T02:48:05.134Z,10.61
2023-05-17T02:49:05.091Z,10.67
2023-05-17T02:50:05.077Z,10.55
2023-05-17T02:51:05.072Z,10.54
2023-05-17T02:52:05.186Z,10.57
2023-05-17T02:53:05.056Z,10.55
2023-05-17T02:54:05.044Z,10.54
2023-05-17T02:55:05.043Z,10.42
2023-05-17T02:56:05.036Z,10.49
2023-05-17T02:57:05.079Z,10.54
2023-05-17T02:58:05.014Z,10.58
2023-05-17T02:59:05.013Z,10.39
2023-05-17T03:00:05.012Z,10.43
2023-05-17T03:01:05.009Z,10.27
2023-05-17T03:02:04.987Z,10.24
2023-05-17T03:03:05.060Z,10.26
2023-05-17T03:04:05.132Z,10.30
2023-05-17T03:05:05.008Z,10.27
2023-05-17T03:06:05.044Z,10.26
2023-05-17T03:07:06.877Z,10.24
2023-05-17T03:08:05.128Z,10.21
2023-05-17T03:09:04.931Z,10.31
2023-05-17T03:10:04.938Z,10.31
2023-05-17T03:11:04.945Z,10.39
2023-05-17T03:12:04.907Z,10.42
2023-05-17T03:13:04.913Z,10.31
2023-05-17T03:14:04.912Z,10.35
2023-05-17T03:15:04.892Z,10.42
2023-05-17T03:16:04.881Z,10.48
2023-05-17T03:17:04.873Z,10.42
2023-05-17T03:18:04.988Z,10.27
2023-05-17T03:19:04.992Z,10.31
2023-05-17T03:20:04.845Z,10.28
2023-05-17T03:21:04.840Z,10.18
2023-05-17T03:22:04.831Z,10.12
2023-05-17T03:23:04.840Z,10.12
2023-05-17T03:24:04.815Z,10.17
2023-05-17T03:25:04.817Z,10.27
2023-05-17T03:26:04.811Z,10.24
2023-05-17T03:27:04.831Z,10.34
2023-05-17T03:28:04.782Z,10.39
2023-05-17T03:29:04.777Z,10.43
2023-05-17T03:30:04.766Z,10.46
2023-05-17T03:31:04.832Z,10.41
2023-05-17T03:32:04.757Z,10.34
2023-05-17T03:33:04.860Z,10.35
2023-05-17T03:34:04.813Z,10.39
2023-05-17T03:35:04.746Z,10.30
2023-05-17T03:36:04.728Z,10.23
2023-05-17T03:37:04.715Z,10.23
2023-05-17T03:38:04.710Z,10.30
2023-05-17T03:39:04.704Z,10.12
2023-05-17T03:40:04.807Z,10.05
2023-05-17T03:41:04.702Z,10.20
2023-05-17T03:42:04.670Z,10.16
2023-05-17T03:43:04.675Z,10.12
2023-05-17T03:44:04.670Z,10.17
2023-05-17T03:45:04.658Z,10.27
2023-05-17T03:46:04.643Z,10.23
2023-05-17T03:47:04.642Z,10.23
2023-05-17T03:48:04.636Z,10.42
2023-05-17T03:49:04.702Z,10.38
2023-05-17T03:50:04.616Z,10.38
2023-05-17T03:51:04.607Z,10.35
2023-05-17T03:52:04.609Z,10.39
2023-05-17T03:53:04.616Z,10.43
2023-05-17T03:54:04.587Z,10.52
2023-05-17T03:55:04.601Z,10.36
2023-05-17T03:56:04.642Z,10.27
2023-05-17T03:57:04.560Z,10.43
2023-05-17T03:58:04.563Z,10.30
2023-05-17T03:59:04.552Z,10.35
2023-05-17T04:00:04.541Z,10.28
2023-05-17T04:01:04.564Z,10.34
2023-05-17T04:02:04.540Z,10.26
2023-05-17T04:03:04.539Z,10.23
2023-05-17T04:04:04.633Z,10.18
2023-05-17T04:05:04.512Z,10.12
2023-05-17T04:06:04.502Z,10.20
2023-05-17T04:07:05.444Z,10.24
2023-05-17T04:08:04.474Z,10.30
2023-05-17T04:09:04.488Z,10.36
2023-05-17T04:10:04.460Z,10.35
2023-05-17T04:11:04.457Z,10.39
2023-05-17T04:12:04.572Z,10.43
2023-05-17T04:13:04.449Z,10.55
2023-05-17T04:14:04.442Z,10.57
2023-05-17T04:15:04.429Z,10.54
2023-05-17T04:16:04.423Z,10.54
2023-05-17T04:17:04.425Z,10.52
2023-05-17T04:18:04.431Z,10.49
2023-05-17T04:19:04.489Z,10.52
2023-05-17T04:20:04.396Z,10.57
2023-05-17T04:21:04.400Z,10.45
2023-05-17T04:22:04.372Z,10.55
2023-05-17T04:23:04.366Z,10.54
2023-05-17T04:24:04.374Z,10.54
2023-05-17T04:25:04.453Z,10.45
2023-05-17T04:26:04.349Z,10.46
2023-05-17T04:27:04.355Z,10.57
2023-05-17T04:28:04.447Z,10.48
2023-05-17T04:29:04.331Z,10.54
2023-05-17T04:30:04.330Z,10.52
2023-05-17T04:31:04.304Z,10.52
2023-05-17T04:32:04.298Z,10.55
2023-05-17T04:33:04.414Z,10.60
2023-05-17T04:34:04.342Z,10.58
2023-05-17T04:35:04.268Z,10.64
2023-05-17T04:36:04.278Z,10.61
2023-05-17T04:37:04.262Z,10.68
2023-05-17T04:38:04.247Z,10.60
2023-05-17T04:39:04.277Z,10.58
2023-05-17T04:40:04.239Z,10.67
2023-05-17T04:41:04.232Z,10.76
2023-05-17T04:42:04.230Z,10.80
2023-05-17T04:43:04.208Z,10.75
2023-05-17T04:44:04.293Z,10.70
2023-05-17T04:45:04.201Z,10.80
2023-05-17T04:46:04.196Z,10.70
2023-05-17T04:47:04.182Z,10.76
2023-05-17T04:48:04.213Z,10.78
2023-05-17T04:49:04.249Z,10.68
2023-05-17T04:50:04.165Z,10.76
2023-05-17T04:51:04.207Z,10.76
2023-05-17T04:52:06.200Z,10.76
2023-05-17T04:53:04.162Z,10.68
2023-05-17T04:54:04.134Z,10.82
2023-05-17T04:55:04.132Z,10.70
2023-05-17T04:56:04.146Z,10.87
2023-05-17T04:57:04.117Z,10.87
2023-05-17T04:58:04.107Z,10.80
2023-05-17T04:59:04.128Z,10.78
2023-05-17T05:00:04.283Z,10.79
2023-05-17T05:01:04.096Z,10.75
2023-05-17T05:02:04.092Z,10.86
2023-05-17T05:03:04.157Z,10.85
2023-05-17T05:04:04.186Z,10.86
2023-05-17T05:05:04.178Z,10.91
2023-05-17T05:06:04.061Z,10.85
2023-05-17T05:07:04.048Z,10.93
2023-05-17T05:08:04.041Z,11.03
2023-05-17T05:09:04.034Z,11.05
2023-05-17T05:10:04.071Z,11.00
2023-05-17T05:11:04.056Z,11.03
2023-05-17T05:12:04.013Z,11.08
2023-05-17T05:13:03.997Z,11.04
2023-05-17T05:14:03.982Z,11.08
2023-05-17T05:15:03.975Z,11.05
2023-05-17T05:16:04.036Z,11.05
2023-05-17T05:17:03.979Z,11.01
2023-05-17T05:18:04.052Z,11.03
2023-05-17T05:19:04.178Z,11.04
2023-05-17T05:20:03.947Z,11.04
2023-05-17T05:21:03.935Z,11.11
2023-05-17T05:22:03.937Z,11.01
2023-05-17T05:23:03.917Z,11.04
2023-05-17T05:24:03.912Z,10.97
2023-05-17T05:25:03.898Z,11.12
2023-05-17T05:26:03.896Z,11.08
2023-05-17T05:27:06.210Z,11.03
2023-05-17T05:28:03.888Z,11.09
2023-05-17T05:29:03.879Z,11.04
2023-05-17T05:30:03.869Z,11.04
2023-05-17T05:31:03.865Z,11.08
2023-05-17T05:32:03.985Z,11.09
2023-05-17T05:33:03.929Z,11.09
2023-05-17T05:34:03.885Z,11.13
2023-05-17T05:35:03.832Z,11.09
2023-05-17T05:36:03.832Z,11.19
2023-05-17T05:37:03.825Z,11.15
2023-05-17T05:38:03.813Z,11.18
2023-05-17T05:39:03.809Z,11.13
2023-05-17T05:40:04.466Z,11.15
2023-05-17T05:41:03.788Z,11.22
2023-05-17T05:42:03.785Z,11.27
2023-05-17T05:43:03.799Z,11.04
2023-05-17T05:44:03.779Z,11.22
2023-05-17T05:45:03.768Z,11.12
2023-05-17T05:46:03.756Z,11.16
2023-05-17T05:47:03.752Z,11.22
2023-05-17T05:48:03.825Z,11.25
2023-05-17T05:49:03.786Z,11.28
2023-05-17T05:50:03.728Z,11.36
2023-05-17T05:51:03.720Z,11.31
2023-05-17T05:52:03.714Z,11.27
2023-05-17T05:53:17.156Z,11.25
2023-05-17T05:54:03.693Z,11.30
2023-05-17T05:55:03.698Z,11.23
2023-05-17T05:56:03.682Z,11.27
2023-05-17T05:57:03.683Z,11.27
2023-05-17T05:58:03.681Z,11.23
2023-05-17T05:59:03.695Z,11.20
2023-05-17T06:00:03.658Z,11.30
2023-05-17T06:01:06.128Z,11.31
2023-05-17T06:02:03.647Z,11.37
2023-05-17T06:03:03.684Z,11.28
2023-05-17T06:04:03.697Z,11.33
2023-05-17T06:05:03.624Z,11.31
2023-05-17T06:06:03.745Z,11.40
2023-05-17T06:07:03.672Z,11.45
2023-05-17T06:08:03.601Z,11.54
2023-05-17T06:09:03.599Z,11.43
2023-05-17T06:10:03.588Z,11.52
2023-05-17T06:11:03.604Z,11.58
2023-05-17T06:12:03.589Z,11.45
2023-05-17T06:13:03.580Z,11.48
2023-05-17T06:14:03.565Z,11.55
2023-05-17T06:15:03.559Z,11.54
2023-05-17T06:16:03.571Z,11.48
2023-05-17T06:17:03.537Z,11.43
2023-05-17T06:18:03.591Z,11.43
2023-05-17T06:19:03.669Z,11.40
2023-05-17T06:20:03.776Z,11.46
2023-05-17T06:21:03.520Z,11.40
2023-05-17T06:22:03.512Z,11.43
2023-05-17T06:23:03.513Z,11.46
2023-05-17T06:24:05.072Z,11.45
2023-05-17T06:25:03.487Z,11.40
2023-05-17T06:26:03.490Z,11.37
2023-05-17T06:27:03.491Z,11.49
2023-05-17T06:28:03.470Z,11.49
2023-05-17T06:29:03.464Z,11.45
2023-05-17T06:30:05.531Z,11.46
2023-05-17T06:31:03.447Z,11.64
2023-05-17T06:32:03.441Z,11.59
2023-05-17T06:33:03.480Z,11.59
2023-05-17T06:34:03.500Z,11.61
2023-05-17T06:35:03.423Z,11.58
2023-05-17T06:37:03.404Z,11.51
2023-05-17T06:38:03.404Z,11.48
2023-05-17T06:39:03.392Z,11.28
2023-05-17T06:40:10.327Z,11.37
2023-05-17T06:41:03.420Z,11.28
2023-05-17T06:42:03.380Z,11.45
2023-05-17T06:43:03.361Z,11.45
2023-05-17T06:44:03.357Z,11.37
2023-05-17T06:45:03.359Z,11.38
2023-05-17T06:46:03.351Z,11.46
2023-05-17T06:47:03.330Z,11.51
2023-05-17T06:48:03.413Z,11.45
2023-05-17T06:49:03.438Z,11.52
2023-05-17T06:50:03.357Z,11.45
2023-05-17T06:51:03.335Z,11.41
2023-05-17T06:52:03.607Z,11.38
2023-05-17T06:53:03.291Z,11.37
2023-05-17T06:54:03.290Z,11.46
2023-05-17T06:55:03.291Z,11.38
2023-05-17T06:56:03.277Z,11.34
2023-05-17T06:57:03.301Z,11.36
2023-05-17T06:58:03.259Z,11.48
2023-05-17T06:59:03.262Z,11.45
2023-05-17T07:00:03.276Z,11.48
2023-05-17T07:01:03.245Z,11.41
2023-05-17T07:02:03.251Z,11.41
2023-05-17T07:03:03.310Z,11.48
2023-05-17T07:04:04.235Z,11.45
2023-05-17T07:05:04.238Z,11.51
2023-05-17T07:06:03.247Z,11.54
2023-05-17T07:07:03.221Z,11.59
2023-05-17T07:08:03.279Z,11.74
2023-05-17T07:09:03.179Z,11.82
2023-05-17T07:10:03.179Z,11.80
2023-05-17T07:11:03.189Z,11.91
2023-05-17T07:12:03.156Z,11.99
2023-05-17T07:13:03.177Z,11.97
2023-05-17T07:14:03.151Z,11.99
2023-05-17T07:15:03.146Z,12.08
2023-05-17T07:16:03.135Z,11.99
2023-05-17T07:17:03.132Z,12.10
2023-05-17T07:18:03.351Z,12.13
2023-05-17T07:19:03.170Z,12.11
2023-05-17T07:20:03.348Z,12.15
2023-05-17T07:21:03.106Z,12.28
2023-05-17T07:22:03.113Z,12.28
2023-05-17T07:23:03.102Z,12.36
2023-05-17T07:24:03.158Z,12.40
2023-05-17T07:25:03.274Z,12.36
2023-05-17T07:26:03.070Z,12.41
2023-05-17T07:27:03.073Z,12.53
2023-05-17T07:28:03.066Z,12.61
2023-05-17T07:29:03.074Z,12.50
2023-05-17T07:30:03.048Z,12.66
2023-05-17T07:31:03.053Z,12.77
2023-05-17T07:32:03.038Z,12.79
2023-05-17T07:33:03.061Z,12.62
2023-05-17T07:34:03.052Z,12.65
2023-05-17T07:35:03.044Z,12.65
2023-05-17T07:36:03.078Z,12.84
2023-05-17T07:37:03.013Z,12.80
2023-05-17T07:38:03.179Z,12.66
2023-05-17T07:39:03.006Z,12.68
2023-05-17T07:40:03.046Z,12.61
2023-05-17T07:41:02.984Z,12.66
2023-05-17T07:42:05.328Z,12.69
2023-05-17T07:43:02.985Z,12.65
2023-05-17T07:44:02.964Z,12.61
2023-05-17T07:45:02.974Z,12.51
2023-05-17T07:46:02.962Z,12.69
2023-05-17T07:47:02.990Z,12.81
2023-05-17T07:48:03.004Z,12.77
2023-05-17T07:49:03.101Z,12.87
2023-05-17T07:50:02.936Z,12.91
2023-05-17T07:51:02.922Z,12.98
2023-05-17T07:52:02.933Z,13.06
2023-05-17T07:53:02.911Z,12.98
2023-05-17T07:54:02.905Z,13.02
2023-05-17T07:55:02.894Z,13.06
2023-05-17T07:56:02.898Z,13.01
2023-05-17T07:57:02.906Z,13.01
2023-05-17T07:58:02.895Z,13.01
2023-05-17T07:59:02.939Z,13.04
2023-05-17T08:00:02.864Z,13.04
2023-05-17T08:01:02.867Z,13.08
2023-05-17T08:02:02.857Z,13.09
2023-05-17T08:03:02.924Z,13.08
2023-05-17T08:04:02.893Z,13.05
2023-05-17T08:05:02.843Z,13.05
2023-05-17T08:06:02.873Z,13.01
2023-05-17T08:07:02.830Z,12.98
2023-05-17T08:08:02.825Z,13.06
2023-05-17T08:09:02.856Z,13.13
2023-05-17T08:10:02.829Z,13.11
2023-05-17T08:11:02.801Z,13.23
2023-05-17T08:12:02.854Z,13.23
2023-05-17T08:13:02.796Z,13.40
2023-05-17T08:14:02.795Z,13.36
2023-05-17T08:15:02.778Z,13.32
2023-05-17T08:16:12.657Z,13.29
2023-05-17T08:17:02.772Z,13.43
2023-05-17T08:18:04.808Z,13.54
2023-05-17T08:19:02.956Z,13.53
2023-05-17T08:20:02.796Z,13.54
2023-05-17T08:21:02.750Z,13.54
2023-05-17T08:22:02.766Z,13.49
2023-05-17T08:23:02.808Z,13.47
2023-05-17T08:24:04.106Z,13.43
2023-05-17T08:25:02.745Z,13.53
2023-05-17T08:26:02.719Z,13.47
2023-05-17T08:27:02.729Z,13.57
2023-05-17T08:28:02.705Z,13.64
2023-05-17T08:29:02.706Z,13.67
2023-05-17T08:30:04.119Z,13.76
2023-05-17T08:31:02.705Z,13.88
2023-05-17T08:32:02.680Z,13.96
2023-05-17T08:33:02.781Z,13.90
2023-05-17T08:34:02.715Z,13.96
2023-05-17T08:35:02.718Z,13.93
2023-05-17T08:36:02.682Z,13.72
2023-05-17T08:37:02.682Z,13.64
2023-05-17T08:38:02.662Z,13.75
2023-05-17T08:39:02.662Z,13.64
2023-05-17T08:40:02.687Z,13.78
2023-05-17T08:41:02.640Z,13.71
2023-05-17T08:42:02.661Z,13.68
2023-05-17T08:43:02.628Z,13.78
2023-05-17T08:44:02.716Z,13.79
2023-05-17T08:45:02.639Z,13.67
2023-05-17T08:46:02.614Z,13.72
2023-05-17T08:47:02.606Z,13.85
2023-05-17T08:48:02.661Z,13.94
2023-05-17T08:49:02.906Z,13.91
2023-05-17T08:50:02.596Z,14.01
2023-05-17T08:51:02.621Z,14.01
2023-05-17T08:52:02.575Z,13.98
2023-05-17T08:53:02.616Z,14.00
2023-05-17T08:54:02.566Z,14.00
2023-05-17T08:55:02.607Z,13.97
2023-05-17T08:56:02.613Z,14.08
2023-05-17T08:57:02.572Z,14.01
2023-05-17T08:58:02.615Z,14.01
2023-05-17T08:59:02.548Z,14.03
2023-05-17T09:00:02.655Z,14.01
2023-05-17T09:01:02.539Z,14.08
2023-05-17T09:02:02.576Z,14.30
2023-05-17T09:03:02.599Z,14.33
2023-05-17T09:04:02.519Z,14.49
2023-05-17T09:05:02.731Z,14.52
2023-05-17T09:06:02.552Z,14.55
2023-05-17T09:07:02.501Z,14.63
2023-05-17T09:08:02.510Z,14.71
2023-05-17T09:09:02.499Z,14.89
2023-05-17T09:10:02.511Z,15.10
2023-05-17T09:11:02.501Z,15.12
2023-05-17T09:12:02.472Z,15.33
2023-05-17T09:13:02.468Z,15.38
2023-05-17T09:14:02.471Z,15.51
2023-05-17T09:15:02.470Z,15.60
2023-05-17T09:16:02.503Z,15.65
2023-05-17T09:17:02.458Z,15.73
2023-05-17T09:18:02.641Z,15.69
2023-05-17T09:19:02.532Z,15.69
2023-05-17T09:20:02.495Z,15.47
2023-05-17T09:21:02.443Z,15.27
2023-05-17T09:22:02.463Z,15.20
2023-05-17T09:23:02.428Z,15.11
2023-05-17T09:24:07.152Z,15.05
2023-05-17T09:25:02.420Z,15.05
2023-05-17T09:26:02.409Z,15.05
2023-05-17T09:27:02.424Z,15.14
2023-05-17T09:28:02.407Z,15.23
2023-05-17T09:29:02.416Z,15.17
2023-05-17T09:30:02.443Z,15.23
2023-05-17T09:31:02.392Z,15.10
2023-05-17T09:32:02.390Z,15.23
2023-05-17T09:33:02.387Z,15.40
2023-05-17T09:34:02.508Z,15.56
2023-05-17T09:35:02.382Z,15.45
2023-05-17T09:36:02.375Z,15.43
2023-05-17T09:37:02.374Z,15.51
2023-05-17T09:38:02.377Z,15.80
2023-05-17T09:39:02.424Z,15.99
2023-05-17T09:40:02.375Z,16.24
2023-05-17T09:41:02.368Z,16.34
2023-05-17T09:42:02.357Z,16.54
2023-05-17T09:43:02.392Z,16.51
2023-05-17T09:44:02.344Z,16.57
2023-05-17T09:45:02.341Z,16.40
2023-05-17T09:46:02.333Z,16.28
2023-05-17T09:47:02.334Z,16.28
2023-05-17T09:48:02.492Z,16.37
2023-05-17T09:49:02.494Z,16.44
2023-05-17T09:50:02.344Z,16.43
2023-05-17T09:51:02.345Z,16.62
2023-05-17T09:52:02.327Z,16.73
2023-05-17T09:53:02.318Z,16.90
2023-05-17T09:54:02.321Z,16.88
2023-05-17T09:55:02.368Z,16.82
2023-05-17T09:56:02.331Z,16.52
2023-05-17T09:57:02.315Z,16.18
2023-05-17T09:58:02.302Z,16.02
2023-05-17T09:59:02.311Z,15.93
2023-05-17T10:00:02.301Z,15.95
2023-05-17T10:01:02.314Z,16.09
2023-05-17T10:02:02.321Z,16.26
2023-05-17T10:03:02.474Z,16.54
2023-05-17T10:04:02.562Z,16.72
2023-05-17T10:05:02.393Z,16.82
2023-05-17T10:06:02.296Z,17.04
2023-05-17T10:07:02.289Z,17.06
2023-05-17T10:08:02.283Z,17.17
2023-05-17T10:09:02.288Z,17.32
2023-05-17T10:10:02.304Z,17.46
2023-05-17T10:11:02.313Z,17.37
2023-05-17T10:12:02.269Z,17.25
2023-05-17T10:13:02.267Z,17.24
2023-05-17T10:14:02.266Z,17.17
2023-05-17T10:15:02.315Z,17.13
2023-05-17T10:16:02.256Z,17.24
2023-05-17T10:17:02.265Z,17.37
2023-05-17T10:18:02.379Z,17.38
2023-05-17T10:19:02.343Z,17.39
2023-05-17T10:20:02.382Z,17.38
2023-05-17T10:21:02.261Z,17.20
2023-05-17T10:22:21.230Z,17.37
2023-05-17T10:23:02.245Z,17.50
2023-05-17T10:24:02.244Z,17.47
2023-05-17T10:25:02.255Z,17.32
2023-05-17T10:26:02.245Z,17.01
2023-05-17T10:27:02.262Z,16.98
2023-05-17T10:28:02.247Z,17.12
2023-05-17T10:29:02.277Z,17.41
2023-05-17T10:30:02.247Z,17.39
2023-05-17T10:31:02.228Z,17.62
2023-05-17T10:32:02.231Z,17.54
2023-05-17T10:33:02.412Z,17.59
2023-05-17T10:34:02.310Z,17.96
2023-05-17T10:35:11.419Z,18.13
2023-05-17T10:36:02.246Z,18.09
2023-05-17T10:37:02.227Z,18.02
2023-05-17T10:38:02.223Z,18.24
2023-05-17T10:39:02.223Z,18.61
2023-05-17T10:40:02.236Z,18.85
2023-05-17T10:41:02.347Z,19.05
2023-05-17T10:43:02.215Z,19.45
2023-05-17T10:44:02.219Z,19.59
2023-05-17T10:45:02.309Z,19.70
2023-05-17T10:46:02.219Z,19.60
2023-05-17T10:47:02.244Z,19.42
2023-05-17T10:48:02.292Z,19.17
2023-05-17T10:49:02.386Z,18.98
2023-05-17T10:50:02.219Z,18.86
2023-05-17T10:51:02.252Z,18.43
2023-05-17T10:52:02.295Z,18.13
2023-05-17T10:53:02.231Z,17.88
2023-05-17T10:54:02.218Z,17.59
2023-05-17T10:55:02.218Z,17.65
2023-05-17T10:56:02.231Z,17.84
2023-05-17T10:57:02.222Z,18.12
2023-05-17T10:58:02.224Z,18.51
2023-05-17T10:59:02.219Z,18.61
2023-05-17T11:00:02.220Z,18.63
2023-05-17T11:01:02.212Z,18.75
2023-05-17T11:02:02.211Z,18.81
2023-05-17T11:03:02.265Z,18.88
2023-05-17T11:04:02.208Z,18.97
2023-05-17T11:05:02.431Z,18.64
2023-05-17T11:06:02.313Z,18.63
2023-05-17T11:07:05.169Z,18.74
2023-05-17T11:08:02.221Z,18.71
2023-05-17T11:09:02.211Z,18.86
2023-05-17T11:10:02.204Z,18.63
2023-05-17T11:11:02.216Z,18.33
2023-05-17T11:12:02.222Z,17.99
2023-05-17T11:13:02.215Z,17.81
2023-05-17T11:14:02.210Z,17.52
2023-05-17T11:15:02.208Z,17.20
2023-05-17T11:16:02.218Z,17.14
2023-05-17T11:17:02.218Z,17.27
2023-05-17T11:18:02.278Z,17.46
2023-05-17T11:19:02.364Z,17.50
2023-05-17T11:20:02.433Z,17.53
2023-05-17T11:21:02.397Z,17.50
2023-05-17T11:22:02.206Z,17.54
2023-05-17T11:23:02.221Z,17.49
2023-05-17T11:24:02.208Z,17.43
2023-05-17T11:25:02.214Z,17.50
2023-05-17T11:26:12.867Z,17.50
2023-05-17T11:27:02.210Z,17.57
2023-05-17T11:28:02.218Z,17.56
2023-05-17T11:29:02.250Z,17.68
2023-05-17T11:30:02.205Z,17.56
2023-05-17T11:31:02.193Z,17.62
2023-05-17T11:32:02.209Z,17.68
2023-05-17T11:33:02.234Z,17.50
2023-05-17T11:34:02.222Z,17.41
2023-05-17T11:35:02.193Z,17.43
2023-05-17T11:36:02.187Z,17.38
2023-05-17T11:37:02.189Z,17.37
2023-05-17T11:38:02.187Z,17.41
2023-05-17T11:39:08.004Z,17.34
2023-05-17T11:40:02.199Z,17.49
2023-05-17T11:41:02.665Z,17.54
2023-05-17T11:42:02.189Z,17.65
2023-05-17T11:43:02.165Z,17.84
2023-05-17T11:44:02.168Z,17.91
2023-05-17T11:45:02.200Z,17.94
2023-05-17T11:46:02.156Z,17.94
2023-05-17T11:47:02.206Z,17.53
2023-05-17T11:48:02.246Z,17.39
2023-05-17T11:49:02.157Z,17.30
2023-05-17T11:50:02.146Z,17.38
2023-05-17T11:51:02.605Z,17.46
2023-05-17T11:52:02.139Z,17.53
2023-05-17T11:53:02.138Z,17.65
2023-05-17T11:54:02.136Z,17.66
2023-05-17T11:55:02.156Z,17.69
2023-05-17T11:56:02.193Z,17.79
2023-05-17T11:57:02.127Z,17.78
2023-05-17T11:58:02.150Z,17.93
2023-05-17T11:59:02.132Z,17.94
2023-05-17T12:00:02.109Z,18.01
2023-05-17T12:01:02.122Z,18.12
2023-05-17T12:02:02.108Z,18.06
2023-05-17T12:03:02.166Z,18.02
2023-05-17T12:04:02.189Z,18.01
2023-05-17T12:05:02.238Z,18.12
2023-05-17T12:06:02.129Z,18.18
2023-05-17T12:07:02.088Z,18.20
2023-05-17T12:08:02.080Z,18.27
2023-05-17T12:09:02.089Z,18.26
2023-05-17T12:10:02.081Z,18.12
2023-05-17T12:11:02.102Z,18.13
2023-05-17T12:12:02.070Z,18.18
2023-05-17T12:13:02.064Z,18.03
2023-05-17T12:14:02.062Z,17.97
2023-05-17T12:15:02.068Z,17.63
2023-05-17T12:16:02.073Z,17.65
2023-05-17T12:17:02.058Z,17.66
2023-05-17T12:18:02.090Z,17.71
2023-05-17T12:19:02.250Z,17.71
2023-05-17T12:20:02.117Z,17.75
2023-05-17T12:21:02.044Z,17.88
2023-05-17T12:22:02.034Z,17.81
2023-05-17T12:23:02.038Z,17.86
2023-05-17T12:24:02.022Z,17.90
2023-05-17T12:25:02.039Z,17.97
2023-05-17T12:26:02.024Z,18.09
2023-05-17T12:27:02.016Z,18.31
2023-05-17T12:28:02.005Z,18.38
2023-05-17T12:29:02.004Z,18.36
2023-05-17T12:30:02.001Z,18.36
2023-05-17T12:31:02.004Z,18.39
2023-05-17T12:32:01.991Z,18.38
2023-05-17T12:33:02.043Z,18.31
2023-05-17T12:34:02.050Z,18.24
2023-05-17T12:35:01.988Z,18.24
2023-05-17T12:36:01.987Z,18.30
2023-05-17T12:37:01.969Z,18.05
2023-05-17T12:38:01.968Z,18.06
2023-05-17T12:39:02.035Z,18.18
2023-05-17T12:40:01.969Z,18.20
2023-05-17T12:41:01.979Z,18.15
2023-05-17T12:42:01.958Z,18.09
2023-05-17T12:43:01.999Z,18.34
2023-05-17T12:44:13.538Z,18.30
2023-05-17T12:45:01.955Z,18.41
2023-05-17T12:46:03.729Z,18.39
2023-05-17T12:47:01.949Z,18.28
2023-05-17T12:48:01.939Z,18.17
2023-05-17T12:49:01.961Z,18.27
2023-05-17T12:50:01.920Z,18.26
2023-05-17T12:51:01.922Z,18.12
2023-05-17T12:52:01.918Z,18.30
2023-05-17T12:53:01.925Z,18.43
2023-05-17T12:54:01.911Z,18.45